sensor_id;sensor_type;location;lat;lon;timestamp;pressure;altitude;pressure_sealevel;temperature;humidity
50368;BME280;36281;34.132;-118.018;2024-03-23T00:53:05;100025.56;;;22.66;48.37
50368;BME280;36281;34.132;-118.018;2024-03-23T00:55:33;100014.91;;;22.56;49.00
50368;BME280;36281;34.132;-118.018;2024-03-23T00:58:01;100016.97;;;22.64;48.42
50368;BME280;36281;34.132;-118.018;2024-03-23T01:00:29;100023.97;;;22.41;48.87
50368;BME280;36281;34.132;-118.018;2024-03-23T01:02:59;100020.91;;;22.24;49.86
50368;BME280;36281;34.132;-118.018;2024-03-23T01:05:27;100015.91;;;22.07;49.81
50368;BME280;36281;34.132;-118.018;2024-03-23T01:07:55;100030.72;;;22.15;49.93
50368;BME280;36281;34.132;-118.018;2024-03-23T01:10:25;100012.75;;;22.00;49.88
50368;BME280;36281;34.132;-118.018;2024-03-23T01:12:53;100018.59;;;22.07;50.31
50368;BME280;36281;34.132;-118.018;2024-03-23T01:15:21;100023.25;;;22.02;49.84
50368;BME280;36281;34.132;-118.018;2024-03-23T01:17:49;100022.03;;;21.89;50.25
50368;BME280;36281;34.132;-118.018;2024-03-23T01:20:18;100014.47;;;21.86;50.89
50368;BME280;36281;34.132;-118.018;2024-03-23T01:22:46;100021.56;;;21.77;50.82
50368;BME280;36281;34.132;-118.018;2024-03-23T01:25:15;100034.75;;;21.83;50.91
50368;BME280;36281;34.132;-118.018;2024-03-23T01:30:11;100029.97;;;21.70;51.19
50368;BME280;36281;34.132;-118.018;2024-03-23T01:32:41;100034.13;;;21.52;51.31
50368;BME280;36281;34.132;-118.018;2024-03-23T01:35:12;100033.72;;;21.30;52.16
50368;BME280;36281;34.132;-118.018;2024-03-23T01:37:40;100033.75;;;21.25;52.54
50368;BME280;36281;34.132;-118.018;2024-03-23T01:40:08;100031.91;;;21.15;52.68
50368;BME280;36281;34.132;-118.018;2024-03-23T01:42:36;100039.47;;;21.08;52.93
50368;BME280;36281;34.132;-118.018;2024-03-23T01:45:08;100029.09;;;20.86;53.86
50368;BME280;36281;34.132;-118.018;2024-03-23T01:47:40;100033.38;;;20.87;53.95
50368;BME280;36281;34.132;-118.018;2024-03-23T01:50:09;100028.81;;;20.87;53.79
50368;BME280;36281;34.132;-118.018;2024-03-23T01:52:37;100029.59;;;20.93;53.74
50368;BME280;36281;34.132;-118.018;2024-03-23T01:55:07;100020.25;;;20.75;54.42
50368;BME280;36281;34.132;-118.018;2024-03-23T01:57:37;100028.34;;;20.70;54.65
50368;BME280;36281;34.132;-118.018;2024-03-23T02:00:09;100031.56;;;20.67;54.58
50368;BME280;36281;34.132;-118.018;2024-03-23T02:02:42;100036.72;;;20.53;55.32
50368;BME280;36281;34.132;-118.018;2024-03-23T02:05:11;100033.50;;;20.41;55.65
50368;BME280;36281;34.132;-118.018;2024-03-23T02:07:39;100036.50;;;20.29;56.07
50368;BME280;36281;34.132;-118.018;2024-03-23T02:10:10;100033.00;;;20.19;56.72
50368;BME280;36281;34.132;-118.018;2024-03-23T02:12:40;100030.88;;;20.16;56.66
50368;BME280;36281;34.132;-118.018;2024-03-23T02:15:10;100021.72;;;20.11;56.87
50368;BME280;36281;34.132;-118.018;2024-03-23T02:17:38;100029.78;;;20.01;57.46
50368;BME280;36281;34.132;-118.018;2024-03-23T02:20:06;100011.00;;;19.86;57.83
50368;BME280;36281;34.132;-118.018;2024-03-23T02:22:38;100032.78;;;19.84;58.52
50368;BME280;36281;34.132;-118.018;2024-03-23T02:25:08;100051.81;;;19.88;58.42
50368;BME280;36281;34.132;-118.018;2024-03-23T02:27:37;100037.88;;;19.81;58.21
50368;BME280;36281;34.132;-118.018;2024-03-23T02:30:10;100049.41;;;19.81;58.58
50368;BME280;36281;34.132;-118.018;2024-03-23T02:32:38;100046.44;;;19.73;58.78
50368;BME280;36281;34.132;-118.018;2024-03-23T02:35:06;100035.38;;;19.49;59.82
50368;BME280;36281;34.132;-118.018;2024-03-23T02:37:34;100044.53;;;19.58;59.85
50368;BME280;36281;34.132;-118.018;2024-03-23T02:40:02;100041.00;;;19.47;59.88
50368;BME280;36281;34.132;-118.018;2024-03-23T02:42:31;100038.31;;;19.32;60.86
50368;BME280;36281;34.132;-118.018;2024-03-23T02:45:00;100046.91;;;19.39;60.61
50368;BME280;36281;34.132;-118.018;2024-03-23T02:47:32;100044.19;;;19.34;60.54
50368;BME280;36281;34.132;-118.018;2024-03-23T02:50:00;100056.03;;;19.33;61.27
50368;BME280;36281;34.132;-118.018;2024-03-23T02:52:28;100057.09;;;19.27;61.34
50368;BME280;36281;34.132;-118.018;2024-03-23T02:54:56;100049.00;;;19.22;61.58
50368;BME280;36281;34.132;-118.018;2024-03-23T02:57:24;100053.53;;;19.06;62.19
50368;BME280;36281;34.132;-118.018;2024-03-23T02:59:53;100049.22;;;19.00;62.62
50368;BME280;36281;34.132;-118.018;2024-03-23T03:02:21;100050.56;;;19.02;62.70
50368;BME280;36281;34.132;-118.018;2024-03-23T03:04:49;100061.78;;;18.94;62.51
50368;BME280;36281;34.132;-118.018;2024-03-23T03:07:17;100055.63;;;18.94;62.71
50368;BME280;36281;34.132;-118.018;2024-03-23T03:09:45;100062.88;;;18.98;62.83
50368;BME280;36281;34.132;-118.018;2024-03-23T03:12:13;100054.25;;;18.86;63.15
50368;BME280;36281;34.132;-118.018;2024-03-23T03:14:42;100063.34;;;18.80;63.74
50368;BME280;36281;34.132;-118.018;2024-03-23T03:17:11;100066.53;;;18.77;63.88
50368;BME280;36281;34.132;-118.018;2024-03-23T03:19:39;100071.59;;;18.68;64.21
50368;BME280;36281;34.132;-118.018;2024-03-23T03:22:07;100055.91;;;18.50;65.10
50368;BME280;36281;34.132;-118.018;2024-03-23T03:24:35;100080.28;;;18.48;65.41
50368;BME280;36281;34.132;-118.018;2024-03-23T03:27:03;100076.97;;;18.68;64.86
50368;BME280;36281;34.132;-118.018;2024-03-23T03:29:31;100081.16;;;18.59;65.01
50368;BME280;36281;34.132;-118.018;2024-03-23T03:32:03;100080.94;;;18.66;65.08
50368;BME280;36281;34.132;-118.018;2024-03-23T03:34:33;100079.81;;;18.56;65.36
50368;BME280;36281;34.132;-118.018;2024-03-23T03:37:02;100068.19;;;18.41;65.77
50368;BME280;36281;34.132;-118.018;2024-03-23T03:39:30;100077.50;;;18.33;66.60
50368;BME280;36281;34.132;-118.018;2024-03-23T03:41:58;100078.84;;;18.30;67.04
50368;BME280;36281;34.132;-118.018;2024-03-23T03:44:27;100066.72;;;18.23;66.95
50368;BME280;36281;34.132;-118.018;2024-03-23T03:46:55;100072.84;;;18.18;67.28
50368;BME280;36281;34.132;-118.018;2024-03-23T03:49:23;100090.53;;;18.19;66.98
50368;BME280;36281;34.132;-118.018;2024-03-23T03:51:52;100092.34;;;18.08;67.63
50368;BME280;36281;34.132;-118.018;2024-03-23T03:54:21;100090.63;;;17.97;68.26
50368;BME280;36281;34.132;-118.018;2024-03-23T03:56:49;100091.63;;;17.86;68.95
50368;BME280;36281;34.132;-118.018;2024-03-23T03:59:18;100097.03;;;17.91;68.59
50368;BME280;36281;34.132;-118.018;2024-03-23T04:01:47;100103.91;;;17.82;69.27
50368;BME280;36281;34.132;-118.018;2024-03-23T04:04:15;100099.13;;;17.89;68.57
50368;BME280;36281;34.132;-118.018;2024-03-23T04:06:44;100096.41;;;17.84;68.78
50368;BME280;36281;34.132;-118.018;2024-03-23T04:09:14;100092.47;;;17.92;68.53
50368;BME280;36281;34.132;-118.018;2024-03-23T04:11:43;100090.94;;;17.74;69.10
50368;BME280;36281;34.132;-118.018;2024-03-23T04:14:10;100103.91;;;17.82;69.18
50368;BME280;36281;34.132;-118.018;2024-03-23T04:16:38;100108.00;;;17.68;69.98
50368;BME280;36281;34.132;-118.018;2024-03-23T04:19:06;100113.31;;;17.63;70.65
50368;BME280;36281;34.132;-118.018;2024-03-23T04:21:35;100117.59;;;17.37;72.09
50368;BME280;36281;34.132;-118.018;2024-03-23T04:24:03;100107.78;;;17.47;71.84
50368;BME280;36281;34.132;-118.018;2024-03-23T04:26:41;100107.69;;;17.37;72.37
50368;BME280;36281;34.132;-118.018;2024-03-23T04:29:09;100115.25;;;17.45;72.51
50368;BME280;36281;34.132;-118.018;2024-03-23T04:31:36;100106.06;;;17.36;72.97
50368;BME280;36281;34.132;-118.018;2024-03-23T04:34:04;100089.00;;;17.20;73.40
50368;BME280;36281;34.132;-118.018;2024-03-23T04:36:33;100104.25;;;17.20;74.25
50368;BME280;36281;34.132;-118.018;2024-03-23T04:39:01;100117.16;;;17.23;74.24
50368;BME280;36281;34.132;-118.018;2024-03-23T04:41:28;100114.16;;;17.19;74.02
50368;BME280;36281;34.132;-118.018;2024-03-23T04:43:58;100131.53;;;17.17;74.55
50368;BME280;36281;34.132;-118.018;2024-03-23T04:46:27;100101.84;;;16.79;76.06
50368;BME280;36281;34.132;-118.018;2024-03-23T04:48:55;100126.22;;;17.00;76.17
50368;BME280;36281;34.132;-118.018;2024-03-23T04:51:24;100115.88;;;16.87;76.56
50368;BME280;36281;34.132;-118.018;2024-03-23T04:53:51;100120.63;;;17.01;76.27
50368;BME280;36281;34.132;-118.018;2024-03-23T04:56:19;100120.78;;;16.95;76.33
50368;BME280;36281;34.132;-118.018;2024-03-23T04:58:47;100120.56;;;16.96;76.79
50368;BME280;36281;34.132;-118.018;2024-03-23T05:01:17;100118.03;;;16.90;77.20
50368;BME280;36281;34.132;-118.018;2024-03-23T05:03:45;100123.09;;;16.86;77.54
50368;BME280;36281;34.132;-118.018;2024-03-23T05:06:12;100120.72;;;16.90;77.20
50368;BME280;36281;34.132;-118.018;2024-03-23T05:08:40;100125.53;;;16.71;78.60
50368;BME280;36281;34.132;-118.018;2024-03-23T05:11:07;100128.31;;;16.76;78.04
50368;BME280;36281;34.132;-118.018;2024-03-23T05:13:35;100123.44;;;16.73;78.34
50368;BME280;36281;34.132;-118.018;2024-03-23T05:16:04;100115.06;;;16.69;78.66
50368;BME280;36281;34.132;-118.018;2024-03-23T05:18:34;100123.34;;;16.68;78.88
50368;BME280;36281;34.132;-118.018;2024-03-23T05:21:02;100117.09;;;16.45;80.66
50368;BME280;36281;34.132;-118.018;2024-03-23T05:23:30;100125.53;;;16.54;79.86
50368;BME280;36281;34.132;-118.018;2024-03-23T05:25:58;100130.22;;;16.64;79.45
50368;BME280;36281;34.132;-118.018;2024-03-23T05:28:25;100135.56;;;16.64;79.90
50368;BME280;36281;34.132;-118.018;2024-03-23T05:30:53;100130.69;;;16.61;79.91
50368;BME280;36281;34.132;-118.018;2024-03-23T05:33:21;100133.94;;;16.46;80.37
50368;BME280;36281;34.132;-118.018;2024-03-23T05:35:59;100132.13;;;16.46;80.55
50368;BME280;36281;34.132;-118.018;2024-03-23T05:38:26;100110.16;;;16.44;80.50
50368;BME280;36281;34.132;-118.018;2024-03-23T05:40:55;100130.00;;;16.32;82.13
50368;BME280;36281;34.132;-118.018;2024-03-23T05:43:24;100114.69;;;16.27;81.76
50368;BME280;36281;34.132;-118.018;2024-03-23T05:45:57;100099.94;;;16.24;81.82
50368;BME280;36281;34.132;-118.018;2024-03-23T05:48:25;100111.59;;;16.35;81.71
50368;BME280;36281;34.132;-118.018;2024-03-23T05:50:54;100113.16;;;16.48;82.02
50368;BME280;36281;34.132;-118.018;2024-03-23T05:53:25;100107.81;;;16.48;81.45
50368;BME280;36281;34.132;-118.018;2024-03-23T05:56:00;100107.81;;;16.31;82.53
50368;BME280;36281;34.132;-118.018;2024-03-23T05:58:31;100114.75;;;16.15;83.61
50368;BME280;36281;34.132;-118.018;2024-03-23T06:00:59;100124.72;;;16.20;83.56
50368;BME280;36281;34.132;-118.018;2024-03-23T06:03:29;100116.78;;;16.25;83.39
50368;BME280;36281;34.132;-118.018;2024-03-23T06:05:58;100090.06;;;16.25;82.66
50368;BME280;36281;34.132;-118.018;2024-03-23T06:08:28;100103.03;;;16.16;83.58
50368;BME280;36281;34.132;-118.018;2024-03-23T06:11:04;100104.31;;;16.14;83.79
50368;BME280;36281;34.132;-118.018;2024-03-23T06:13:34;100097.38;;;16.13;83.69
50368;BME280;36281;34.132;-118.018;2024-03-23T06:16:02;100121.88;;;16.10;84.42
50368;BME280;36281;34.132;-118.018;2024-03-23T06:18:30;100121.78;;;16.05;85.17
50368;BME280;36281;34.132;-118.018;2024-03-23T06:20:58;100132.13;;;16.01;85.40
50368;BME280;36281;34.132;-118.018;2024-03-23T06:23:28;100138.16;;;15.91;85.86
50368;BME280;36281;34.132;-118.018;2024-03-23T06:25:56;100119.31;;;15.86;85.19
50368;BME280;36281;34.132;-118.018;2024-03-23T06:28:24;100122.94;;;15.92;85.13
50368;BME280;36281;34.132;-118.018;2024-03-23T06:30:52;100125.34;;;15.93;85.34
50368;BME280;36281;34.132;-118.018;2024-03-23T06:33:20;100124.63;;;15.98;85.34
50368;BME280;36281;34.132;-118.018;2024-03-23T06:35:50;100133.78;;;16.02;84.81
50368;BME280;36281;34.132;-118.018;2024-03-23T06:38:19;100131.34;;;16.00;85.20
50368;BME280;36281;34.132;-118.018;2024-03-23T06:40:49;100129.38;;;15.96;85.46
50368;BME280;36281;34.132;-118.018;2024-03-23T06:43:17;100139.84;;;15.97;85.44
50368;BME280;36281;34.132;-118.018;2024-03-23T06:45:52;100123.47;;;15.77;86.47
50368;BME280;36281;34.132;-118.018;2024-03-23T06:48:21;100124.53;;;15.93;85.92
50368;BME280;36281;34.132;-118.018;2024-03-23T06:50:48;100112.88;;;15.82;85.92
50368;BME280;36281;34.132;-118.018;2024-03-23T06:53:17;100109.56;;;15.92;85.94
50368;BME280;36281;34.132;-118.018;2024-03-23T06:55:53;100104.13;;;15.87;86.53
50368;BME280;36281;34.132;-118.018;2024-03-23T06:58:22;100112.38;;;15.85;87.28
50368;BME280;36281;34.132;-118.018;2024-03-23T07:00:49;100110.91;;;15.77;87.42
50368;BME280;36281;34.132;-118.018;2024-03-23T07:03:17;100108.75;;;15.91;87.03
50368;BME280;36281;34.132;-118.018;2024-03-23T07:05:46;100090.72;;;15.98;86.93
50368;BME280;36281;34.132;-118.018;2024-03-23T07:08:14;100099.38;;;16.06;87.00
50368;BME280;36281;34.132;-118.018;2024-03-23T07:10:45;100085.44;;;16.03;86.42
50368;BME280;36281;34.132;-118.018;2024-03-23T07:13:16;100070.22;;;16.04;86.40
50368;BME280;36281;34.132;-118.018;2024-03-23T07:15:44;100087.72;;;16.12;85.87
50368;BME280;36281;34.132;-118.018;2024-03-23T07:18:18;100092.50;;;16.10;85.74
50368;BME280;36281;34.132;-118.018;2024-03-23T07:20:53;100084.22;;;15.94;86.30
50368;BME280;36281;34.132;-118.018;2024-03-23T07:23:22;100091.50;;;16.16;85.71
50368;BME280;36281;34.132;-118.018;2024-03-23T07:25:59;100101.00;;;16.07;86.01
50368;BME280;36281;34.132;-118.018;2024-03-23T07:28:29;100106.41;;;15.95;86.76
50368;BME280;36281;34.132;-118.018;2024-03-23T07:31:02;100107.88;;;16.02;86.43
50368;BME280;36281;34.132;-118.018;2024-03-23T07:33:31;100099.28;;;16.00;86.35
50368;BME280;36281;34.132;-118.018;2024-03-23T07:35:59;100096.06;;;15.98;86.25
50368;BME280;36281;34.132;-118.018;2024-03-23T07:38:30;100095.00;;;15.99;86.06
50368;BME280;36281;34.132;-118.018;2024-03-23T07:41:05;100080.56;;;16.00;85.71
50368;BME280;36281;34.132;-118.018;2024-03-23T07:43:35;100077.81;;;15.95;85.53
50368;BME280;36281;34.132;-118.018;2024-03-23T07:46:03;100090.00;;;16.03;85.41
50368;BME280;36281;34.132;-118.018;2024-03-23T07:48:33;100082.06;;;15.91;85.88
50368;BME280;36281;34.132;-118.018;2024-03-23T07:51:02;100079.69;;;15.95;85.91
50368;BME280;36281;34.132;-118.018;2024-03-23T07:53:30;100077.59;;;15.97;85.56
50368;BME280;36281;34.132;-118.018;2024-03-23T07:55:59;100083.97;;;15.96;85.90
50368;BME280;36281;34.132;-118.018;2024-03-23T07:58:27;100080.66;;;16.06;85.70
50368;BME280;36281;34.132;-118.018;2024-03-23T08:01:04;100082.22;;;16.01;85.30
50368;BME280;36281;34.132;-118.018;2024-03-23T08:03:32;100082.13;;;15.96;85.45
50368;BME280;36281;34.132;-118.018;2024-03-23T08:06:07;100076.78;;;15.96;85.29
50368;BME280;36281;34.132;-118.018;2024-03-23T08:08:35;100069.91;;;16.17;84.38
50368;BME280;36281;34.132;-118.018;2024-03-23T08:11:03;100075.41;;;16.27;83.91
50368;BME280;36281;34.132;-118.018;2024-03-23T08:13:32;100072.16;;;16.25;83.61
50368;BME280;36281;34.132;-118.018;2024-03-23T08:16:03;100077.44;;;16.20;83.76
50368;BME280;36281;34.132;-118.018;2024-03-23T08:18:32;100077.53;;;16.09;84.81
50368;BME280;36281;34.132;-118.018;2024-03-23T08:21:00;100070.78;;;16.06;84.84
50368;BME280;36281;34.132;-118.018;2024-03-23T08:23:29;100073.16;;;16.02;84.71
50368;BME280;36281;34.132;-118.018;2024-03-23T08:25:58;100066.13;;;15.96;85.08
50368;BME280;36281;34.132;-118.018;2024-03-23T08:28:27;100069.91;;;16.00;85.01
50368;BME280;36281;34.132;-118.018;2024-03-23T08:30:55;100070.88;;;15.94;85.22
50368;BME280;36281;34.132;-118.018;2024-03-23T08:33:25;100070.16;;;15.99;85.45
50368;BME280;36281;34.132;-118.018;2024-03-23T08:35:54;100077.94;;;16.17;84.84
50368;BME280;36281;34.132;-118.018;2024-03-23T08:38:26;100062.72;;;16.18;84.64
50368;BME280;36281;34.132;-118.018;2024-03-23T08:40:58;100062.38;;;16.14;84.53
50368;BME280;36281;34.132;-118.018;2024-03-23T08:43:26;100065.28;;;16.13;85.14
50368;BME280;36281;34.132;-118.018;2024-03-23T08:45:54;100051.28;;;16.06;84.79
50368;BME280;36281;34.132;-118.018;2024-03-23T08:48:24;100057.75;;;16.10;84.73
50368;BME280;36281;34.132;-118.018;2024-03-23T08:51:02;100050.25;;;16.07;85.07
50368;BME280;36281;34.132;-118.018;2024-03-23T08:53:30;100050.25;;;16.07;85.26
50368;BME280;36281;34.132;-118.018;2024-03-23T08:55:59;100058.00;;;16.25;84.54
50368;BME280;36281;34.132;-118.018;2024-03-23T08:58:29;100047.16;;;16.32;83.54
50368;BME280;36281;34.132;-118.018;2024-03-23T09:01:02;100046.75;;;16.23;82.93
50368;BME280;36281;34.132;-118.018;2024-03-23T09:03:31;100055.59;;;16.07;84.29
50368;BME280;36281;34.132;-118.018;2024-03-23T09:05:59;100044.31;;;16.05;83.80
50368;BME280;36281;34.132;-118.018;2024-03-23T09:08:27;100048.13;;;16.09;84.07
50368;BME280;36281;34.132;-118.018;2024-03-23T09:10:55;100050.88;;;16.14;83.58
50368;BME280;36281;34.132;-118.018;2024-03-23T09:13:22;100048.53;;;16.00;83.65
50368;BME280;36281;34.132;-118.018;2024-03-23T09:15:51;100053.88;;;16.00;84.02
50368;BME280;36281;34.132;-118.018;2024-03-23T09:18:22;100042.38;;;16.00;83.88
50368;BME280;36281;34.132;-118.018;2024-03-23T09:20:51;100023.38;;;15.96;83.86
50368;BME280;36281;34.132;-118.018;2024-03-23T09:23:20;100029.91;;;16.06;83.82
50368;BME280;36281;34.132;-118.018;2024-03-23T09:25:48;100021.09;;;16.22;82.83
50368;BME280;36281;34.132;-118.018;2024-03-23T09:28:15;100020.94;;;16.12;82.13
50368;BME280;36281;34.132;-118.018;2024-03-23T09:30:43;100011.38;;;15.99;82.43
50368;BME280;36281;34.132;-118.018;2024-03-23T09:33:12;99999.34;;;15.96;82.65
50368;BME280;36281;34.132;-118.018;2024-03-23T09:35:40;100003.78;;;16.08;82.88
50368;BME280;36281;34.132;-118.018;2024-03-23T09:38:11;100008.38;;;15.95;83.51
50368;BME280;36281;34.132;-118.018;2024-03-23T09:40:41;99994.06;;;16.01;83.91
50368;BME280;36281;34.132;-118.018;2024-03-23T09:43:09;99994.88;;;16.02;83.72
50368;BME280;36281;34.132;-118.018;2024-03-23T09:45:40;99992.44;;;16.00;83.99
50368;BME280;36281;34.132;-118.018;2024-03-23T09:48:09;99999.78;;;16.10;82.64
50368;BME280;36281;34.132;-118.018;2024-03-23T09:50:37;99999.72;;;16.05;82.57
50368;BME280;36281;34.132;-118.018;2024-03-23T09:53:07;99998.28;;;15.97;82.69
50368;BME280;36281;34.132;-118.018;2024-03-23T09:55:36;99991.97;;;15.87;83.37
50368;BME280;36281;34.132;-118.018;2024-03-23T09:58:05;99986.34;;;16.05;83.13
50368;BME280;36281;34.132;-118.018;2024-03-23T10:00:32;99983.94;;;16.03;83.28
50368;BME280;36281;34.132;-118.018;2024-03-23T10:03:01;99979.88;;;16.01;82.93
50368;BME280;36281;34.132;-118.018;2024-03-23T10:05:30;99970.91;;;15.90;83.53
50368;BME280;36281;34.132;-118.018;2024-03-23T10:08:17;99962.09;;;15.73;84.14
50368;BME280;36281;34.132;-118.018;2024-03-23T10:10:47;99972.06;;;15.77;83.82
50368;BME280;36281;34.132;-118.018;2024-03-23T10:13:24;99972.38;;;15.64;84.18
50368;BME280;36281;34.132;-118.018;2024-03-23T10:15:56;99975.13;;;15.69;83.42
50368;BME280;36281;34.132;-118.018;2024-03-23T10:18:25;99968.72;;;15.70;83.17
50368;BME280;36281;34.132;-118.018;2024-03-23T10:21:06;99953.59;;;15.76;82.90
50368;BME280;36281;34.132;-118.018;2024-03-23T10:23:35;99950.19;;;15.81;82.75
50368;BME280;36281;34.132;-118.018;2024-03-23T10:26:20;99940.75;;;15.73;82.47
50368;BME280;36281;34.132;-118.018;2024-03-23T10:28:55;99928.66;;;15.54;83.53
50368;BME280;36281;34.132;-118.018;2024-03-23T10:31:35;99951.28;;;15.51;84.46
50368;BME280;36281;34.132;-118.018;2024-03-23T10:34:08;99949.03;;;15.43;84.74
50368;BME280;36281;34.132;-118.018;2024-03-23T10:36:39;99938.69;;;15.46;84.85
50368;BME280;36281;34.132;-118.018;2024-03-23T10:39:12;99953.41;;;15.32;85.24
50368;BME280;36281;34.132;-118.018;2024-03-23T10:41:46;99941.50;;;15.23;86.51
50368;BME280;36281;34.132;-118.018;2024-03-23T10:44:17;99945.22;;;15.39;86.19
50368;BME280;36281;34.132;-118.018;2024-03-23T10:46:46;99926.47;;;15.34;85.96
50368;BME280;36281;34.132;-118.018;2024-03-23T10:49:14;99950.25;;;15.52;85.94
50368;BME280;36281;34.132;-118.018;2024-03-23T10:51:42;99960.53;;;15.43;86.73
50368;BME280;36281;34.132;-118.018;2024-03-23T10:54:11;99940.38;;;15.52;86.53
50368;BME280;36281;34.132;-118.018;2024-03-23T10:56:40;99942.88;;;15.42;86.06
50368;BME280;36281;34.132;-118.018;2024-03-23T10:59:10;99947.25;;;15.48;85.30
50368;BME280;36281;34.132;-118.018;2024-03-23T11:01:54;99933.56;;;15.45;85.68
50368;BME280;36281;34.132;-118.018;2024-03-23T11:04:33;99929.22;;;15.56;85.35
50368;BME280;36281;34.132;-118.018;2024-03-23T11:07:01;99924.94;;;15.55;85.49
50368;BME280;36281;34.132;-118.018;2024-03-23T11:09:41;99922.84;;;15.57;85.50
50368;BME280;36281;34.132;-118.018;2024-03-23T11:12:26;99926.97;;;15.47;85.99
50368;BME280;36281;34.132;-118.018;2024-03-23T11:14:57;99916.38;;;15.52;85.84
50368;BME280;36281;34.132;-118.018;2024-03-23T11:17:30;99901.97;;;15.54;85.59
50368;BME280;36281;34.132;-118.018;2024-03-23T11:19:59;99894.28;;;15.57;85.80
50368;BME280;36281;34.132;-118.018;2024-03-23T11:22:43;99892.75;;;15.78;84.87
50368;BME280;36281;34.132;-118.018;2024-03-23T11:25:18;99896.44;;;15.60;85.37
50368;BME280;36281;34.132;-118.018;2024-03-23T11:27:51;99880.69;;;15.42;86.63
50368;BME280;36281;34.132;-118.018;2024-03-23T11:30:22;99868.53;;;15.51;86.56
50368;BME280;36281;34.132;-118.018;2024-03-23T11:32:50;99886.69;;;15.32;87.40
50368;BME280;36281;34.132;-118.018;2024-03-23T11:35:28;99885.72;;;15.38;87.24
50368;BME280;36281;34.132;-118.018;2024-03-23T11:38:03;99888.69;;;15.25;88.08
50368;BME280;36281;34.132;-118.018;2024-03-23T11:40:31;99891.03;;;15.21;88.45
50368;BME280;36281;34.132;-118.018;2024-03-23T11:43:00;99890.63;;;15.13;88.98
50368;BME280;36281;34.132;-118.018;2024-03-23T11:45:34;99885.22;;;15.24;88.54
50368;BME280;36281;34.132;-118.018;2024-03-23T11:48:06;99886.34;;;15.12;89.25
50368;BME280;36281;34.132;-118.018;2024-03-23T11:50:37;99894.34;;;15.12;89.60
50368;BME280;36281;34.132;-118.018;2024-03-23T11:53:22;99897.81;;;15.12;89.46
50368;BME280;36281;34.132;-118.018;2024-03-23T11:55:51;99888.59;;;15.20;89.29
50368;BME280;36281;34.132;-118.018;2024-03-23T11:58:19;99891.84;;;15.22;89.28
50368;BME280;36281;34.132;-118.018;2024-03-23T12:00:52;99893.84;;;15.15;89.51
50368;BME280;36281;34.132;-118.018;2024-03-23T12:03:20;99897.75;;;15.24;89.37
50368;BME280;36281;34.132;-118.018;2024-03-23T12:05:53;99902.28;;;15.23;89.70
50368;BME280;36281;34.132;-118.018;2024-03-23T12:08:22;99898.88;;;15.28;89.57
50368;BME280;36281;34.132;-118.018;2024-03-23T12:10:52;99902.75;;;15.20;90.11
50368;BME280;36281;34.132;-118.018;2024-03-23T12:13:20;99905.50;;;15.09;90.91
50368;BME280;36281;34.132;-118.018;2024-03-23T12:15:51;99907.19;;;15.15;90.57
50368;BME280;36281;34.132;-118.018;2024-03-23T12:18:23;99892.88;;;15.04;91.00
50368;BME280;36281;34.132;-118.018;2024-03-23T12:20:52;99899.81;;;15.05;91.08
50368;BME280;36281;34.132;-118.018;2024-03-23T12:23:20;99897.88;;;15.00;91.40
50368;BME280;36281;34.132;-118.018;2024-03-23T12:25:49;99902.56;;;14.93;91.85
50368;BME280;36281;34.132;-118.018;2024-03-23T12:28:17;99894.81;;;15.09;91.24
50368;BME280;36281;34.132;-118.018;2024-03-23T12:30:44;99889.66;;;15.02;91.91
50368;BME280;36281;34.132;-118.018;2024-03-23T12:33:14;99882.59;;;14.96;92.05
50368;BME280;36281;34.132;-118.018;2024-03-23T12:35:42;99871.03;;;14.90;92.68
50368;BME280;36281;34.132;-118.018;2024-03-23T12:38:10;99869.50;;;14.94;93.04
50368;BME280;36281;34.132;-118.018;2024-03-23T12:40:37;99862.00;;;15.08;91.57
50368;BME280;36281;34.132;-118.018;2024-03-23T12:43:05;99861.13;;;15.03;92.35
50368;BME280;36281;34.132;-118.018;2024-03-23T12:45:32;99875.22;;;14.86;93.27
50368;BME280;36281;34.132;-118.018;2024-03-23T12:48:01;99876.03;;;14.87;93.00
50368;BME280;36281;34.132;-118.018;2024-03-23T12:50:30;99877.03;;;14.97;92.40
50368;BME280;36281;34.132;-118.018;2024-03-23T12:52:57;99875.22;;;14.86;93.27
50368;BME280;36281;34.132;-118.018;2024-03-23T12:55:25;99886.72;;;14.87;93.23
50368;BME280;36281;34.132;-118.018;2024-03-23T12:57:53;99890.09;;;14.82;93.62
50368;BME280;36281;34.132;-118.018;2024-03-23T13:00:20;99877.94;;;14.74;94.09
50368;BME280;36281;34.132;-118.018;2024-03-23T13:02:48;99881.69;;;14.90;93.23
50368;BME280;36281;34.132;-118.018;2024-03-23T13:05:16;99877.66;;;14.88;93.62
50368;BME280;36281;34.132;-118.018;2024-03-23T13:07:45;99873.38;;;14.87;93.76
50368;BME280;36281;34.132;-118.018;2024-03-23T13:10:13;99864.69;;;14.80;93.93
50368;BME280;36281;34.132;-118.018;2024-03-23T13:12:41;99872.44;;;14.81;94.43
50368;BME280;36281;34.132;-118.018;2024-03-23T13:15:10;99868.44;;;14.95;93.10
50368;BME280;36281;34.132;-118.018;2024-03-23T13:17:38;99856.31;;;14.88;93.75
50368;BME280;36281;34.132;-118.018;2024-03-23T13:20:07;99855.34;;;14.77;94.85
50368;BME280;36281;34.132;-118.018;2024-03-23T13:22:40;99868.97;;;14.81;95.38
50368;BME280;36281;34.132;-118.018;2024-03-23T13:25:10;99865.59;;;14.85;94.60
50368;BME280;36281;34.132;-118.018;2024-03-23T13:27:37;99867.22;;;14.86;94.51
50368;BME280;36281;34.132;-118.018;2024-03-23T13:30:06;99854.75;;;14.75;94.32